Onil, Spain
Current Conditions -  °F | °C
As of 3:00 AM on Saturday 25 Oct 2014 (Local Time) from LEAL Reporting Station
Clear Clear  
Wind Chill: 59°   Ceiling: Unl
Heat Index: 59°   Visibility: 6mi
Dew Point: 46°   Wind: 6mph
Humidity: 63%   Direction: 270°W
Pressure: 30.06"   Gusts: NA
Location:  38.63°N, 0.67°W
Report Text: LEAL 250100Z 27005KT CAVOK 15/08 Q1018 NOSIG
Loading
Personal Weather Stations






























Interactive Weather Map
Tropical Storm Tracking
New forecast layout! Learn more

10-Day Weather Forecast

Advertisements
Track Severe Weather on mobile